sensor_id;sensor_type;location;lat;lon;timestamp;pressure;altitude;pressure_sealevel;temperature;humidity
22283;BME280;11310;51.528;21.204;2023-07-31T00:00:30;99394.13;;;18.66;100.00
22283;BME280;11310;51.528;21.204;2023-07-31T00:03:00;99389.34;;;18.60;100.00
22283;BME280;11310;51.528;21.204;2023-07-31T00:05:29;99396.34;;;18.61;100.00
22283;BME280;11310;51.528;21.204;2023-07-31T00:07:57;99394.94;;;18.57;100.00
22283;BME280;11310;51.528;21.204;2023-07-31T00:10:31;99401.50;;;18.53;100.00
22283;BME280;11310;51.528;21.204;2023-07-31T00:13:01;99401.06;;;18.48;100.00
22283;BME280;11310;51.528;21.204;2023-07-31T00:15:30;99409.28;;;18.45;100.00
22283;BME280;11310;51.528;21.204;2023-07-31T00:17:59;99404.94;;;18.44;100.00
22283;BME280;11310;51.528;21.204;2023-07-31T00:20:28;99407.72;;;18.43;100.00
22283;BME280;11310;51.528;21.204;2023-07-31T00:22:58;99416.00;;;18.40;100.00
22283;BME280;11310;51.528;21.204;2023-07-31T00:25:26;99411.06;;;18.35;100.00
22283;BME280;11310;51.528;21.204;2023-07-31T00:27:55;99414.72;;;18.34;100.00
22283;BME280;11310;51.528;21.204;2023-07-31T00:30:26;99406.28;;;18.29;100.00
22283;BME280;11310;51.528;21.204;2023-07-31T00:32:55;99408.06;;;18.29;100.00
22283;BME280;11310;51.528;21.204;2023-07-31T00:35:26;99408.22;;;18.27;100.00
22283;BME280;11310;51.528;21.204;2023-07-31T00:37:57;99400.66;;;18.23;100.00
22283;BME280;11310;51.528;21.204;2023-07-31T00:40:26;99401.88;;;18.19;100.00
22283;BME280;11310;51.528;21.204;2023-07-31T00:42:55;99409.97;;;18.17;100.00
22283;BME280;11310;51.528;21.204;2023-07-31T00:45:25;99405.91;;;18.13;100.00
22283;BME280;11310;51.528;21.204;2023-07-31T00:47:55;99410.53;;;18.11;100.00
22283;BME280;11310;51.528;21.204;2023-07-31T00:50:27;99412.31;;;18.11;100.00
22283;BME280;11310;51.528;21.204;2023-07-31T00:52:58;99404.78;;;18.06;100.00
22283;BME280;11310;51.528;21.204;2023-07-31T00:55:26;99406.72;;;18.04;100.00
22283;BME280;11310;51.528;21.204;2023-07-31T00:57:55;99408.66;;;18.02;100.00
22283;BME280;11310;51.528;21.204;2023-07-31T01:00:24;99403.34;;;18.02;100.00
22283;BME280;11310;51.528;21.204;2023-07-31T01:02:53;99400.94;;;17.99;100.00
22283;BME280;11310;51.528;21.204;2023-07-31T01:05:28;99395.19;;;17.94;100.00
22283;BME280;11310;51.528;21.204;2023-07-31T01:08:04;99399.72;;;18.03;100.00
22283;BME280;11310;51.528;21.204;2023-07-31T01:10:42;99398.28;;;17.99;100.00
22283;BME280;11310;51.528;21.204;2023-07-31T01:13:15;99395.47;;;17.91;100.00
22283;BME280;11310;51.528;21.204;2023-07-31T01:15:45;99397.81;;;17.85;100.00
22283;BME280;11310;51.528;21.204;2023-07-31T01:18:14;99399.03;;;17.81;100.00
22283;BME280;11310;51.528;21.204;2023-07-31T01:20:54;99398.47;;;17.77;100.00
22283;BME280;11310;51.528;21.204;2023-07-31T01:23:35;99392.97;;;17.69;100.00
22283;BME280;11310;51.528;21.204;2023-07-31T01:26:17;99390.13;;;17.61;100.00
22283;BME280;11310;51.528;21.204;2023-07-31T01:28:54;99382.69;;;17.55;100.00
22283;BME280;11310;51.528;21.204;2023-07-31T01:31:24;99389.81;;;17.55;100.00
22283;BME280;11310;51.528;21.204;2023-07-31T01:33:59;99393.66;;;17.51;100.00
22283;BME280;11310;51.528;21.204;2023-07-31T01:36:29;99393.56;;;17.52;100.00
22283;BME280;11310;51.528;21.204;2023-07-31T01:38:59;99406.81;;;17.52;100.00
22283;BME280;11310;51.528;21.204;2023-07-31T01:41:29;99400.53;;;17.53;100.00
22283;BME280;11310;51.528;21.204;2023-07-31T01:43:58;99403.91;;;17.55;100.00
22283;BME280;11310;51.528;21.204;2023-07-31T01:46:27;99411.75;;;17.57;100.00
22283;BME280;11310;51.528;21.204;2023-07-31T01:48:56;99410.53;;;17.61;100.00
22283;BME280;11310;51.528;21.204;2023-07-31T01:51:25;99407.06;;;17.70;100.00
22283;BME280;11310;51.528;21.204;2023-07-31T01:53:53;99411.75;;;17.77;100.00
22283;BME280;11310;51.528;21.204;2023-07-31T01:56:22;99403.63;;;17.79;100.00
22283;BME280;11310;51.528;21.204;2023-07-31T01:58:52;99407.84;;;17.81;100.00
22283;BME280;11310;51.528;21.204;2023-07-31T02:01:21;99401.69;;;17.81;100.00
22283;BME280;11310;51.528;21.204;2023-07-31T02:03:50;99405.06;;;17.83;100.00
22283;BME280;11310;51.528;21.204;2023-07-31T02:06:21;99391.53;;;17.86;100.00
22283;BME280;11310;51.528;21.204;2023-07-31T02:08:50;99394.06;;;17.87;100.00
22283;BME280;11310;51.528;21.204;2023-07-31T02:11:18;99389.97;;;17.83;100.00
22283;BME280;11310;51.528;21.204;2023-07-31T02:13:49;99380.16;;;17.74;100.00
22283;BME280;11310;51.528;21.204;2023-07-31T02:16:19;99395.09;;;17.75;100.00
22283;BME280;11310;51.528;21.204;2023-07-31T02:18:47;99395.63;;;17.69;100.00
22283;BME280;11310;51.528;21.204;2023-07-31T02:21:16;99396.41;;;17.60;100.00
22283;BME280;11310;51.528;21.204;2023-07-31T02:23:45;99397.75;;;17.55;100.00
22283;BME280;11310;51.528;21.204;2023-07-31T02:26:13;99401.31;;;17.44;100.00
22283;BME280;11310;51.528;21.204;2023-07-31T02:28:42;99408.44;;;17.44;100.00
22283;BME280;11310;51.528;21.204;2023-07-31T02:31:11;99411.66;;;17.47;100.00
22283;BME280;11310;51.528;21.204;2023-07-31T02:33:41;99413.94;;;17.52;100.00
22283;BME280;11310;51.528;21.204;2023-07-31T02:36:10;99418.16;;;17.54;100.00
22283;BME280;11310;51.528;21.204;2023-07-31T02:38:38;99419.81;;;17.55;100.00
22283;BME280;11310;51.528;21.204;2023-07-31T02:41:07;99425.84;;;17.57;100.00
22283;BME280;11310;51.528;21.204;2023-07-31T02:43:36;99419.69;;;17.57;100.00
22283;BME280;11310;51.528;21.204;2023-07-31T02:46:05;99428.47;;;17.57;100.00
22283;BME280;11310;51.528;21.204;2023-07-31T02:48:33;99431.13;;;17.57;100.00
22283;BME280;11310;51.528;21.204;2023-07-31T02:51:03;99434.88;;;17.55;100.00
22283;BME280;11310;51.528;21.204;2023-07-31T02:53:33;99430.44;;;17.55;100.00
22283;BME280;11310;51.528;21.204;2023-07-31T02:56:02;99431.13;;;17.57;100.00
22283;BME280;11310;51.528;21.204;2023-07-31T02:58:30;99430.16;;;17.58;100.00
22283;BME280;11310;51.528;21.204;2023-07-31T03:00:59;99435.47;;;17.58;100.00
22283;BME280;11310;51.528;21.204;2023-07-31T03:03:27;99431.75;;;17.61;100.00
22283;BME280;11310;51.528;21.204;2023-07-31T03:05:56;99426.44;;;17.61;100.00
22283;BME280;11310;51.528;21.204;2023-07-31T03:08:27;99428.25;;;17.60;100.00
22283;BME280;11310;51.528;21.204;2023-07-31T03:10:56;99436.19;;;17.60;100.00
22283;BME280;11310;51.528;21.204;2023-07-31T03:13:25;99437.16;;;17.59;100.00
22283;BME280;11310;51.528;21.204;2023-07-31T03:15:54;99435.22;;;17.61;100.00
22283;BME280;11310;51.528;21.204;2023-07-31T03:18:22;99433.31;;;17.63;100.00
22283;BME280;11310;51.528;21.204;2023-07-31T03:20:51;99434.97;;;17.64;100.00
22283;BME280;11310;51.528;21.204;2023-07-31T03:23:20;99430.66;;;17.63;100.00
22283;BME280;11310;51.528;21.204;2023-07-31T03:25:59;99433.53;;;17.60;100.00
22283;BME280;11310;51.528;21.204;2023-07-31T03:28:28;99457.63;;;17.68;100.00
22283;BME280;11310;51.528;21.204;2023-07-31T03:30:57;99457.63;;;17.68;100.00
22283;BME280;11310;51.528;21.204;2023-07-31T03:33:26;99450.59;;;17.67;100.00
22283;BME280;11310;51.528;21.204;2023-07-31T03:35:55;99454.97;;;17.68;100.00
22283;BME280;11310;51.528;21.204;2023-07-31T03:38:24;99454.56;;;17.73;100.00
22283;BME280;11310;51.528;21.204;2023-07-31T03:40:53;99456.56;;;17.80;100.00
22283;BME280;11310;51.528;21.204;2023-07-31T03:43:23;99450.78;;;17.86;100.00
22283;BME280;11310;51.528;21.204;2023-07-31T03:45:52;99448.44;;;17.93;100.00
22283;BME280;11310;51.528;21.204;2023-07-31T03:48:21;99449.72;;;17.98;100.00
22283;BME280;11310;51.528;21.204;2023-07-31T03:50:50;99445.81;;;18.02;100.00
22283;BME280;11310;51.528;21.204;2023-07-31T03:53:18;99447.00;;;18.09;100.00
22283;BME280;11310;51.528;21.204;2023-07-31T03:55:47;99449.13;;;18.15;100.00
22283;BME280;11310;51.528;21.204;2023-07-31T03:58:16;99461.59;;;18.24;100.00
22283;BME280;11310;51.528;21.204;2023-07-31T04:00:47;99457.41;;;18.31;100.00
22283;BME280;11310;51.528;21.204;2023-07-31T04:03:16;99458.38;;;18.41;100.00
22283;BME280;11310;51.528;21.204;2023-07-31T04:05:44;99460.03;;;18.42;100.00
22283;BME280;11310;51.528;21.204;2023-07-31T04:08:13;99457.25;;;18.44;100.00
22283;BME280;11310;51.528;21.204;2023-07-31T04:10:42;99462.34;;;18.56;100.00
22283;BME280;11310;51.528;21.204;2023-07-31T04:13:10;99460.91;;;18.52;100.00
22283;BME280;11310;51.528;21.204;2023-07-31T04:15:39;99468.63;;;18.55;100.00
22283;BME280;11310;51.528;21.204;2023-07-31T04:18:08;99462.34;;;18.56;100.00
22283;BME280;11310;51.528;21.204;2023-07-31T04:20:37;99466.66;;;18.57;100.00
22283;BME280;11310;51.528;21.204;2023-07-31T04:23:06;99467.22;;;18.61;100.00
22283;BME280;11310;51.528;21.204;2023-07-31T04:25:35;99469.38;;;18.67;100.00
22283;BME280;11310;51.528;21.204;2023-07-31T04:28:05;99465.16;;;18.64;100.00
22283;BME280;11310;51.528;21.204;2023-07-31T04:30:34;99467.94;;;18.63;100.00
22283;BME280;11310;51.528;21.204;2023-07-31T04:33:03;99468.78;;;18.63;100.00
22283;BME280;11310;51.528;21.204;2023-07-31T04:35:34;99471.19;;;18.66;100.00
22283;BME280;11310;51.528;21.204;2023-07-31T04:38:06;99480.00;;;18.67;100.00
22283;BME280;11310;51.528;21.204;2023-07-31T04:40:34;99478.75;;;18.71;100.00
22283;BME280;11310;51.528;21.204;2023-07-31T04:43:03;99480.31;;;18.73;100.00
22283;BME280;11310;51.528;21.204;2023-07-31T04:45:32;99477.66;;;18.73;100.00
22283;BME280;11310;51.528;21.204;2023-07-31T04:48:00;99475.25;;;18.70;100.00
22283;BME280;11310;51.528;21.204;2023-07-31T04:50:30;99478.59;;;18.72;100.00
22283;BME280;11310;51.528;21.204;2023-07-31T04:53:00;99476.66;;;18.74;100.00
22283;BME280;11310;51.528;21.204;2023-07-31T04:55:28;99487.00;;;18.77;100.00
22283;BME280;11310;51.528;21.204;2023-07-31T04:57:58;99488.84;;;18.77;100.00
22283;BME280;11310;51.528;21.204;2023-07-31T05:00:27;99497.63;;;18.77;100.00
22283;BME280;11310;51.528;21.204;2023-07-31T05:02:56;99495.84;;;18.78;100.00
22283;BME280;11310;51.528;21.204;2023-07-31T05:05:25;99502.00;;;18.78;100.00
22283;BME280;11310;51.528;21.204;2023-07-31T05:07:54;99496.56;;;18.80;100.00
22283;BME280;11310;51.528;21.204;2023-07-31T05:10:24;99497.13;;;18.83;100.00
22283;BME280;11310;51.528;21.204;2023-07-31T05:12:53;99501.88;;;18.89;100.00
22283;BME280;11310;51.528;21.204;2023-07-31T05:15:22;99504.97;;;18.94;100.00
22283;BME280;11310;51.528;21.204;2023-07-31T05:17:50;99501.50;;;18.94;100.00
22283;BME280;11310;51.528;21.204;2023-07-31T05:20:19;99502.31;;;18.94;100.00
22283;BME280;11310;51.528;21.204;2023-07-31T05:22:48;99492.66;;;18.93;100.00
22283;BME280;11310;51.528;21.204;2023-07-31T05:25:17;99504.97;;;18.94;100.00
22283;BME280;11310;51.528;21.204;2023-07-31T05:27:47;99505.41;;;18.99;100.00
22283;BME280;11310;51.528;21.204;2023-07-31T05:30:16;99501.63;;;19.02;100.00
22283;BME280;11310;51.528;21.204;2023-07-31T05:32:44;99507.53;;;19.05;100.00
22283;BME280;11310;51.528;21.204;2023-07-31T05:35:13;99514.25;;;19.09;100.00
22283;BME280;11310;51.528;21.204;2023-07-31T05:37:42;99514.53;;;19.16;100.00
22283;BME280;11310;51.528;21.204;2023-07-31T05:40:11;99518.47;;;19.21;100.00
22283;BME280;11310;51.528;21.204;2023-07-31T05:42:40;99516.00;;;19.29;100.00
22283;BME280;11310;51.528;21.204;2023-07-31T05:45:10;99520.91;;;19.34;100.00
22283;BME280;11310;51.528;21.204;2023-07-31T05:47:40;99529.19;;;19.40;100.00
22283;BME280;11310;51.528;21.204;2023-07-31T05:50:09;99528.66;;;19.46;100.00
22283;BME280;11310;51.528;21.204;2023-07-31T05:52:37;99530.63;;;19.54;100.00
22283;BME280;11310;51.528;21.204;2023-07-31T05:55:07;99535.38;;;19.60;100.00
22283;BME280;11310;51.528;21.204;2023-07-31T05:57:35;99526.41;;;19.61;100.00
22283;BME280;11310;51.528;21.204;2023-07-31T06:00:06;99528.09;;;19.71;100.00
22283;BME280;11310;51.528;21.204;2023-07-31T06:02:37;99541.25;;;19.82;100.00
22283;BME280;11310;51.528;21.204;2023-07-31T06:05:06;99533.13;;;19.93;100.00
22283;BME280;11310;51.528;21.204;2023-07-31T06:07:35;99544.19;;;19.98;100.00
22283;BME280;11310;51.528;21.204;2023-07-31T06:10:04;99537.22;;;19.97;100.00
22283;BME280;11310;51.528;21.204;2023-07-31T06:12:33;99541.41;;;20.00;100.00
22283;BME280;11310;51.528;21.204;2023-07-31T06:15:03;99548.69;;;19.98;100.00
22283;BME280;11310;51.528;21.204;2023-07-31T06:17:31;99553.03;;;19.89;100.00
22283;BME280;11310;51.528;21.204;2023-07-31T06:20:01;99557.09;;;19.84;100.00
22283;BME280;11310;51.528;21.204;2023-07-31T06:22:32;99551.91;;;19.82;100.00
22283;BME280;11310;51.528;21.204;2023-07-31T06:25:03;99556.97;;;19.85;100.00
22283;BME280;11310;51.528;21.204;2023-07-31T06:27:32;99556.69;;;19.88;100.00
22283;BME280;11310;51.528;21.204;2023-07-31T06:30:01;99552.47;;;19.95;100.00
22283;BME280;11310;51.528;21.204;2023-07-31T06:32:30;99548.81;;;20.06;100.00
22283;BME280;11310;51.528;21.204;2023-07-31T06:34:59;99555.81;;;20.35;100.00
22283;BME280;11310;51.528;21.204;2023-07-31T06:37:29;99558.56;;;20.53;100.00
22283;BME280;11310;51.528;21.204;2023-07-31T06:39:58;99550.16;;;20.57;100.00
22283;BME280;11310;51.528;21.204;2023-07-31T06:42:27;99551.97;;;20.66;100.00
22283;BME280;11310;51.528;21.204;2023-07-31T06:44:56;99557.06;;;20.87;100.00
22283;BME280;11310;51.528;21.204;2023-07-31T06:47:26;99559.78;;;21.14;100.00
22283;BME280;11310;51.528;21.204;2023-07-31T06:49:55;99560.31;;;21.45;100.00
22283;BME280;11310;51.528;21.204;2023-07-31T06:52:24;99566.53;;;21.63;100.00
22283;BME280;11310;51.528;21.204;2023-07-31T06:55:02;99562.56;;;21.67;100.00
22283;BME280;11310;51.528;21.204;2023-07-31T06:57:31;99562.00;;;21.63;100.00
22283;BME280;11310;51.528;21.204;2023-07-31T07:00:00;99562.84;;;21.64;100.00
22283;BME280;11310;51.528;21.204;2023-07-31T07:02:32;99559.88;;;21.67;100.00
22283;BME280;11310;51.528;21.204;2023-07-31T07:05:01;99563.22;;;21.69;99.99
22283;BME280;11310;51.528;21.204;2023-07-31T07:07:31;99561.19;;;21.63;100.00
22283;BME280;11310;51.528;21.204;2023-07-31T07:10:02;99559.88;;;21.67;100.00
22283;BME280;11310;51.528;21.204;2023-07-31T07:12:32;99557.22;;;21.67;97.65
22283;BME280;11310;51.528;21.204;2023-07-31T07:15:01;99560.72;;;21.67;100.00
22283;BME280;11310;51.528;21.204;2023-07-31T07:17:30;99558.03;;;21.67;100.00
22283;BME280;11310;51.528;21.204;2023-07-31T07:20:00;99562.06;;;21.81;100.00
22283;BME280;11310;51.528;21.204;2023-07-31T07:22:30;99558.38;;;21.99;100.00
22283;BME280;11310;51.528;21.204;2023-07-31T07:24:59;99564.50;;;22.09;99.40
22283;BME280;11310;51.528;21.204;2023-07-31T07:27:29;99559.06;;;22.19;98.40
22283;BME280;11310;51.528;21.204;2023-07-31T07:29:58;99560.72;;;22.20;97.52
22283;BME280;11310;51.528;21.204;2023-07-31T07:32:27;99566.78;;;22.22;96.89
22283;BME280;11310;51.528;21.204;2023-07-31T07:34:56;99565.78;;;22.23;96.56
22283;BME280;11310;51.528;21.204;2023-07-31T07:37:25;99555.06;;;22.23;96.48
22283;BME280;11310;51.528;21.204;2023-07-31T07:39:55;99563.75;;;22.25;96.71
22283;BME280;11310;51.528;21.204;2023-07-31T07:42:25;99554.00;;;22.33;96.11
22283;BME280;11310;51.528;21.204;2023-07-31T07:44:56;99566.06;;;22.37;95.41
22283;BME280;11310;51.528;21.204;2023-07-31T07:47:26;99557.94;;;22.47;96.09
22283;BME280;11310;51.528;21.204;2023-07-31T07:49:56;99554.41;;;22.64;95.30
22283;BME280;11310;51.528;21.204;2023-07-31T07:52:25;99554.47;;;22.80;93.79
22283;BME280;11310;51.528;21.204;2023-07-31T07:54:54;99552.50;;;22.82;92.55
22283;BME280;11310;51.528;21.204;2023-07-31T07:57:24;99554.16;;;22.83;92.84
22283;BME280;11310;51.528;21.204;2023-07-31T07:59:53;99556.09;;;22.98;92.47
22283;BME280;11310;51.528;21.204;2023-07-31T08:02:23;99551.94;;;23.04;91.18
22283;BME280;11310;51.528;21.204;2023-07-31T08:04:52;99556.00;;;23.16;91.55
22283;BME280;11310;51.528;21.204;2023-07-31T08:07:25;99560.19;;;23.18;90.93
22283;BME280;11310;51.528;21.204;2023-07-31T08:09:54;99569.53;;;23.06;91.97
22283;BME280;11310;51.528;21.204;2023-07-31T08:12:26;99561.84;;;22.78;90.03
22283;BME280;11310;51.528;21.204;2023-07-31T08:14:55;99568.06;;;22.61;93.46
22283;BME280;11310;51.528;21.204;2023-07-31T08:17:28;99565.41;;;22.61;93.72
22283;BME280;11310;51.528;21.204;2023-07-31T08:19:57;99561.84;;;22.78;93.64
22283;BME280;11310;51.528;21.204;2023-07-31T08:22:26;99564.28;;;22.97;92.56
22283;BME280;11310;51.528;21.204;2023-07-31T08:24:55;99566.34;;;23.11;91.34
22283;BME280;11310;51.528;21.204;2023-07-31T08:27:24;99571.16;;;23.33;91.22
22283;BME280;11310;51.528;21.204;2023-07-31T08:29:53;99573.25;;;23.55;89.04
22283;BME280;11310;51.528;21.204;2023-07-31T08:32:23;99573.44;;;23.69;87.44
22283;BME280;11310;51.528;21.204;2023-07-31T08:34:54;99571.97;;;23.83;87.04
22283;BME280;11310;51.528;21.204;2023-07-31T08:37:23;99566.13;;;23.95;86.20
22283;BME280;11310;51.528;21.204;2023-07-31T08:39:52;99571.00;;;24.00;87.41
22283;BME280;11310;51.528;21.204;2023-07-31T08:42:21;99575.34;;;24.17;87.08
22283;BME280;11310;51.528;21.204;2023-07-31T08:44:53;99575.22;;;24.34;86.51
22283;BME280;11310;51.528;21.204;2023-07-31T08:47:25;99574.84;;;24.45;81.90
22283;BME280;11310;51.528;21.204;2023-07-31T08:49:56;99568.84;;;24.35;86.12
22283;BME280;11310;51.528;21.204;2023-07-31T08:52:26;99570.66;;;24.03;83.29
22283;BME280;11310;51.528;21.204;2023-07-31T08:54:55;99573.13;;;23.80;89.14
22283;BME280;11310;51.528;21.204;2023-07-31T08:57:23;99570.25;;;23.66;90.15
22283;BME280;11310;51.528;21.204;2023-07-31T08:59:53;99575.31;;;23.77;88.93
22283;BME280;11310;51.528;21.204;2023-07-31T09:02:26;99574.31;;;23.86;87.85
22283;BME280;11310;51.528;21.204;2023-07-31T09:05:01;99573.16;;;23.96;87.37
22283;BME280;11310;51.528;21.204;2023-07-31T09:07:31;99577.06;;;24.18;86.17
22283;BME280;11310;51.528;21.204;2023-07-31T09:10:03;99569.50;;;24.29;84.66
22283;BME280;11310;51.528;21.204;2023-07-31T09:12:33;99564.16;;;24.29;86.01
22283;BME280;11310;51.528;21.204;2023-07-31T09:15:05;99576.03;;;24.35;85.45
22283;BME280;11310;51.528;21.204;2023-07-31T09:17:35;99576.72;;;24.45;84.49
22283;BME280;11310;51.528;21.204;2023-07-31T09:20:16;99571.00;;;24.40;83.67
22283;BME280;11310;51.528;21.204;2023-07-31T09:22:46;99578.06;;;24.41;85.55
22283;BME280;11310;51.528;21.204;2023-07-31T09:25:16;99571.34;;;24.37;85.97
22283;BME280;11310;51.528;21.204;2023-07-31T09:27:50;99572.34;;;24.28;86.28
22283;BME280;11310;51.528;21.204;2023-07-31T09:30:19;99574.53;;;24.16;85.54
22283;BME280;11310;51.528;21.204;2023-07-31T09:32:49;99580.41;;;24.04;84.29
22283;BME280;11310;51.528;21.204;2023-07-31T09:35:22;99573.53;;;23.93;84.68
22283;BME280;11310;51.528;21.204;2023-07-31T09:37:51;99576.53;;;23.98;84.97
22283;BME280;11310;51.528;21.204;2023-07-31T09:40:28;99565.16;;;24.20;84.27
22283;BME280;11310;51.528;21.204;2023-07-31T09:42:57;99568.66;;;24.45;83.76
22283;BME280;11310;51.528;21.204;2023-07-31T09:45:27;99559.78;;;24.52;81.16
22283;BME280;11310;51.528;21.204;2023-07-31T09:48:08;99563.47;;;24.43;82.47
22283;BME280;11310;51.528;21.204;2023-07-31T09:50:42;99574.19;;;24.27;82.35
22283;BME280;11310;51.528;21.204;2023-07-31T09:53:11;99561.31;;;24.23;82.74
22283;BME280;11310;51.528;21.204;2023-07-31T09:55:41;99568.81;;;24.19;83.70
22283;BME280;11310;51.528;21.204;2023-07-31T09:58:12;99559.59;;;24.30;82.88
22283;BME280;11310;51.528;21.204;2023-07-31T10:00:42;99565.78;;;24.54;82.80
22283;BME280;11310;51.528;21.204;2023-07-31T10:03:11;99556.91;;;24.62;81.65
22283;BME280;11310;51.528;21.204;2023-07-31T10:05:46;99562.13;;;24.63;81.18
22283;BME280;11310;51.528;21.204;2023-07-31T10:08:20;99558.25;;;24.74;79.34
22283;BME280;11310;51.528;21.204;2023-07-31T10:10:50;99564.25;;;24.84;78.92
22283;BME280;11310;51.528;21.204;2023-07-31T10:13:19;99565.19;;;24.99;76.88
22283;BME280;11310;51.528;21.204;2023-07-31T10:15:50;99559.09;;;25.21;75.78
22283;BME280;11310;51.528;21.204;2023-07-31T10:18:19;99568.69;;;25.54;74.13
22283;BME280;11310;51.528;21.204;2023-07-31T10:20:50;99555.31;;;25.76;73.26
22283;BME280;11310;51.528;21.204;2023-07-31T10:23:20;99548.44;;;25.96;72.27
22283;BME280;11310;51.528;21.204;2023-07-31T10:25:51;99549.91;;;26.07;70.13
22283;BME280;11310;51.528;21.204;2023-07-31T10:28:21;99555.50;;;26.20;71.85
22283;BME280;11310;51.528;21.204;2023-07-31T10:30:54;99553.84;;;26.33;70.26
22283;BME280;11310;51.528;21.204;2023-07-31T10:33:23;99549.16;;;26.50;69.12
22283;BME280;11310;51.528;21.204;2023-07-31T10:36:12;99552.22;;;26.47;65.90
22283;BME280;11310;51.528;21.204;2023-07-31T10:38:40;99549.16;;;26.50;69.04
22283;BME280;11310;51.528;21.204;2023-07-31T10:41:10;99546.84;;;26.47;69.26
22283;BME280;11310;51.528;21.204;2023-07-31T10:43:39;99554.88;;;26.32;68.15
22283;BME280;11310;51.528;21.204;2023-07-31T10:46:09;99558.72;;;26.38;68.50
22283;BME280;11310;51.528;21.204;2023-07-31T10:48:41;99539.78;;;26.46;68.50
22283;BME280;11310;51.528;21.204;2023-07-31T10:51:12;99542.72;;;26.59;68.30
22283;BME280;11310;51.528;21.204;2023-07-31T10:53:44;99544.03;;;26.77;69.85
22283;BME280;11310;51.528;21.204;2023-07-31T10:56:12;99538.53;;;27.00;68.97
22283;BME280;11310;51.528;21.204;2023-07-31T10:59:00;99539.78;;;27.26;65.66
22283;BME280;11310;51.528;21.204;2023-07-31T11:01:52;99535.66;;;27.30;64.31
22283;BME280;11310;51.528;21.204;2023-07-31T11:04:25;99540.41;;;27.28;64.63
22283;BME280;11310;51.528;21.204;2023-07-31T11:07:01;99541.28;;;27.50;61.82
22283;BME280;11310;51.528;21.204;2023-07-31T11:09:32;99534.88;;;27.51;63.43
22283;BME280;11310;51.528;21.204;2023-07-31T11:12:02;99537.34;;;27.67;64.40
22283;BME280;11310;51.528;21.204;2023-07-31T11:14:31;99537.25;;;27.96;62.81
22283;BME280;11310;51.528;21.204;2023-07-31T11:17:06;99537.25;;;27.75;60.53
22283;BME280;11310;51.528;21.204;2023-07-31T11:19:37;99529.66;;;27.28;63.90
22283;BME280;11310;51.528;21.204;2023-07-31T11:22:08;99529.81;;;27.27;63.86
22283;BME280;11310;51.528;21.204;2023-07-31T11:24:37;99529.66;;;27.28;63.08
22283;BME280;11310;51.528;21.204;2023-07-31T11:27:08;99530.03;;;27.11;64.86
22283;BME280;11310;51.528;21.204;2023-07-31T11:29:37;99526.94;;;27.14;64.63
22283;BME280;11310;51.528;21.204;2023-07-31T11:32:15;99521.28;;;27.38;59.71
22283;BME280;11310;51.528;21.204;2023-07-31T11:34:52;99522.47;;;27.71;62.24
22283;BME280;11310;51.528;21.204;2023-07-31T11:37:22;99525.97;;;28.07;63.03
22283;BME280;11310;51.528;21.204;2023-07-31T11:40:01;99531.09;;;28.23;57.63
22283;BME280;11310;51.528;21.204;2023-07-31T11:42:31;99526.28;;;28.18;59.11
22283;BME280;11310;51.528;21.204;2023-07-31T11:45:02;99516.19;;;28.06;59.66
22283;BME280;11310;51.528;21.204;2023-07-31T11:47:32;99526.22;;;28.12;60.13
22283;BME280;11310;51.528;21.204;2023-07-31T11:50:04;99521.31;;;28.22;59.90
22283;BME280;11310;51.528;21.204;2023-07-31T11:52:38;99524.34;;;28.12;56.62
22283;BME280;11310;51.528;21.204;2023-07-31T11:55:10;99525.06;;;28.00;59.22
22283;BME280;11310;51.528;21.204;2023-07-31T11:57:41;99504.91;;;27.96;60.17
22283;BME280;11310;51.528;21.204;2023-07-31T12:00:13;99513.50;;;28.06;60.53
22283;BME280;11310;51.528;21.204;2023-07-31T12:02:44;99510.03;;;28.12;59.26
22283;BME280;11310;51.528;21.204;2023-07-31T12:05:13;99508.25;;;27.98;58.15
22283;BME280;11310;51.528;21.204;2023-07-31T12:07:49;99504.03;;;27.74;54.18
22283;BME280;11310;51.528;21.204;2023-07-31T12:10:25;99508.00;;;27.57;55.78
22283;BME280;11310;51.528;21.204;2023-07-31T12:13:03;99498.03;;;27.37;55.95
22283;BME280;11310;51.528;21.204;2023-07-31T12:15:34;99504.53;;;27.28;59.17
22283;BME280;11310;51.528;21.204;2023-07-31T12:18:05;99498.34;;;27.27;61.59
22283;BME280;11310;51.528;21.204;2023-07-31T12:20:34;99492.75;;;27.14;60.76
22283;BME280;11310;51.528;21.204;2023-07-31T12:23:05;99492.94;;;26.98;60.82
22283;BME280;11310;51.528;21.204;2023-07-31T12:25:34;99491.00;;;26.78;60.60
22283;BME280;11310;51.528;21.204;2023-07-31T12:28:04;99494.19;;;26.67;59.59
22283;BME280;11310;51.528;21.204;2023-07-31T12:30:40;99488.25;;;26.57;59.90
22283;BME280;11310;51.528;21.204;2023-07-31T12:33:13;99484.97;;;26.61;60.09
22283;BME280;11310;51.528;21.204;2023-07-31T12:35:45;99484.53;;;26.58;59.73
22283;BME280;11310;51.528;21.204;2023-07-31T12:38:16;99482.16;;;26.40;59.00
22283;BME280;11310;51.528;21.204;2023-07-31T12:40:46;99479.91;;;26.29;60.55
22283;BME280;11310;51.528;21.204;2023-07-31T12:43:15;99477.03;;;26.31;61.35
22283;BME280;11310;51.528;21.204;2023-07-31T12:45:44;99471.50;;;26.47;60.37
22283;BME280;11310;51.528;21.204;2023-07-31T12:48:15;99473.09;;;26.70;57.87
22283;BME280;11310;51.528;21.204;2023-07-31T12:50:44;99475.13;;;26.97;57.68
22283;BME280;11310;51.528;21.204;2023-07-31T12:53:14;99466.38;;;27.10;56.26
22283;BME280;11310;51.528;21.204;2023-07-31T12:55:44;99466.59;;;26.94;56.11
22283;BME280;11310;51.528;21.204;2023-07-31T12:58:13;99467.88;;;26.54;56.83
22283;BME280;11310;51.528;21.204;2023-07-31T13:00:42;99461.28;;;26.42;57.63